createdAt,value
2022-07-25T00:02:17.512Z,100598.40
2022-07-25T00:04:46.216Z,100595.53
2022-07-25T00:07:16.244Z,100592.09
2022-07-25T00:09:44.821Z,100591.46
2022-07-25T00:12:14.393Z,100593.41
2022-07-25T00:14:43.115Z,100592.27
2022-07-25T00:17:11.799Z,100588.98
2022-07-25T00:19:40.689Z,100589.89
2022-07-25T00:22:09.451Z,100593.44
2022-07-25T00:24:38.574Z,100592.42
2022-07-25T00:27:06.849Z,100590.21
2022-07-25T00:29:36.559Z,100582.02
2022-07-25T00:32:06.064Z,100584.72
2022-07-25T00:34:34.521Z,100581.27
2022-07-25T00:37:03.232Z,100579.56
2022-07-25T00:39:32.048Z,100578.26
2022-07-25T00:42:04.476Z,100581.30
2022-07-25T00:44:33.898Z,100577.02
2022-07-25T00:47:02.383Z,100578.52
2022-07-25T00:49:31.062Z,100577.39
2022-07-25T00:52:00.299Z,100575.00
2022-07-25T00:54:29.359Z,100572.21
2022-07-25T00:56:57.925Z,100572.41
2022-07-25T00:59:26.576Z,100568.94
2022-07-25T01:01:55.387Z,100567.72
2022-07-25T01:04:24.301Z,100570.74
2022-07-25T01:06:52.912Z,100568.13
2022-07-25T01:09:21.698Z,100563.41
2022-07-25T01:11:50.283Z,100564.27
2022-07-25T01:14:18.840Z,100572.05
2022-07-25T01:16:47.355Z,100569.06
2022-07-25T01:19:17.509Z,100564.68
2022-07-25T01:21:46.229Z,100562.01
2022-07-25T01:24:14.460Z,100557.99
2022-07-25T01:26:43.089Z,100556.36
2022-07-25T01:29:11.467Z,100552.91
2022-07-25T01:31:39.800Z,100552.38
2022-07-25T01:34:08.872Z,100547.80
2022-07-25T01:36:37.731Z,100542.44
2022-07-25T01:39:06.109Z,100537.78
2022-07-25T01:41:34.893Z,100539.54
2022-07-25T01:44:04.507Z,100542.67
2022-07-25T01:46:33.146Z,100543.02
2022-07-25T01:49:01.973Z,100538.80
2022-07-25T01:51:30.664Z,100535.98
2022-07-25T01:53:59.141Z,100537.98
2022-07-25T01:56:28.629Z,100538.78
2022-07-25T01:59:00.429Z,100537.65
2022-07-25T02:01:29.055Z,100542.63
2022-07-25T02:03:57.573Z,100541.70
2022-07-25T02:06:26.261Z,100548.08
2022-07-25T02:08:54.641Z,100548.16
2022-07-25T02:11:23.180Z,100553.50
2022-07-25T02:13:51.731Z,100546.80
2022-07-25T02:16:20.233Z,100542.21
2022-07-25T02:18:58.259Z,100542.08
2022-07-25T02:21:26.767Z,100545.51
2022-07-25T02:23:55.071Z,100545.34
2022-07-25T02:26:23.701Z,100549.54
2022-07-25T02:28:52.210Z,100549.59
2022-07-25T02:31:20.857Z,100548.66
2022-07-25T02:33:49.543Z,100545.50
2022-07-25T02:36:17.863Z,100548.03
2022-07-25T02:38:46.646Z,100545.66
2022-07-25T02:41:15.467Z,100547.65
2022-07-25T02:43:43.917Z,100542.27
2022-07-25T02:46:12.249Z,100538.44
2022-07-25T02:48:40.906Z,100529.87
2022-07-25T02:51:09.380Z,100530.42
2022-07-25T02:53:56.633Z,100527.31
2022-07-25T02:56:30.330Z,100527.15
2022-07-25T02:59:00.302Z,100526.96
2022-07-25T03:01:29.151Z,100522.33
2022-07-25T03:03:57.625Z,100524.80
2022-07-25T03:06:26.355Z,100533.02
2022-07-25T03:08:54.895Z,100538.08
2022-07-25T03:11:23.385Z,100532.56
2022-07-25T03:13:51.804Z,100531.48
2022-07-25T03:16:20.455Z,100534.96
2022-07-25T03:18:49.172Z,100536.96
2022-07-25T03:21:17.392Z,100537.42
2022-07-25T03:23:49.134Z,100538.88
2022-07-25T03:26:21.195Z,100538.52
2022-07-25T03:28:50.084Z,100532.75
2022-07-25T03:31:18.604Z,100530.91
2022-07-25T03:33:47.231Z,100534.14
2022-07-25T03:36:15.973Z,100538.44
2022-07-25T03:38:44.390Z,100542.20
2022-07-25T03:41:13.673Z,100541.50
2022-07-25T03:43:42.481Z,100541.08
2022-07-25T03:46:11.077Z,100538.79
2022-07-25T03:48:39.689Z,100540.24
2022-07-25T03:51:08.821Z,100533.83
2022-07-25T03:53:57.029Z,100532.45
2022-07-25T03:56:26.184Z,100527.30
2022-07-25T03:58:55.283Z,100530.70
2022-07-25T04:01:23.627Z,100528.36
2022-07-25T04:03:54.009Z,100526.29
2022-07-25T04:06:23.560Z,100524.21
2022-07-25T04:08:52.891Z,100523.84
2022-07-25T04:11:21.844Z,100523.45
2022-07-25T04:13:51.109Z,100526.45
2022-07-25T04:16:22.490Z,100526.20
2022-07-25T04:18:52.372Z,100520.27
2022-07-25T04:21:21.162Z,100515.44
2022-07-25T04:23:50.030Z,100511.85
2022-07-25T04:26:19.686Z,100510.87
2022-07-25T04:28:48.240Z,100514.34
2022-07-25T04:31:17.234Z,100516.16
2022-07-25T04:33:46.641Z,100515.91
2022-07-25T04:36:15.086Z,100522.89
2022-07-25T04:38:43.432Z,100521.58
2022-07-25T04:41:12.276Z,100519.29
2022-07-25T04:43:44.890Z,100515.89
2022-07-25T04:46:21.522Z,100505.95
2022-07-25T04:48:50.776Z,100502.95
2022-07-25T04:51:19.288Z,100506.30
2022-07-25T04:53:47.867Z,100504.30
2022-07-25T04:56:16.655Z,100501.38
2022-07-25T04:58:45.042Z,100500.25
2022-07-25T05:01:13.683Z,100498.94
2022-07-25T05:03:50.612Z,100494.62
2022-07-25T05:06:19.926Z,100490.55
2022-07-25T05:08:48.407Z,100487.77
2022-07-25T05:11:16.763Z,100485.89
2022-07-25T05:13:45.647Z,100482.57
2022-07-25T05:16:14.399Z,100481.15
2022-07-25T05:18:42.739Z,100487.67
2022-07-25T05:21:12.886Z,100486.00
2022-07-25T05:23:42.468Z,100488.59
2022-07-25T05:26:10.717Z,100488.42
2022-07-25T05:28:39.914Z,100491.17
2022-07-25T05:31:08.346Z,100487.83
2022-07-25T05:33:36.875Z,100482.51
2022-07-25T05:36:06.432Z,100481.58
2022-07-25T05:38:35.274Z,100476.49
2022-07-25T05:41:04.571Z,100476.92
2022-07-25T05:43:33.152Z,100475.52
2022-07-25T05:46:03.398Z,100475.34
2022-07-25T05:48:32.117Z,100472.23
2022-07-25T05:51:00.700Z,100470.17
2022-07-25T05:53:29.207Z,100462.80
2022-07-25T05:55:57.605Z,100463.55
2022-07-25T05:58:29.939Z,100462.27
2022-07-25T06:00:59.176Z,100457.46
2022-07-25T06:03:28.116Z,100461.83
2022-07-25T06:05:56.971Z,100459.92
2022-07-25T06:08:27.792Z,100453.65
2022-07-25T06:10:58.664Z,100452.37
2022-07-25T06:13:28.104Z,100452.59
2022-07-25T06:15:57.143Z,100452.01
2022-07-25T06:18:27.072Z,100448.94
2022-07-25T06:20:55.452Z,100449.08
2022-07-25T06:23:24.108Z,100449.37
2022-07-25T06:25:56.584Z,100448.89
2022-07-25T06:28:25.087Z,100442.63
2022-07-25T06:30:53.375Z,100449.65
2022-07-25T06:33:22.176Z,100442.05
2022-07-25T06:35:50.611Z,100442.27
2022-07-25T06:38:19.010Z,100442.13
2022-07-25T06:40:47.871Z,100444.75
2022-07-25T06:43:16.251Z,100435.39
2022-07-25T06:45:47.668Z,100425.70
2022-07-25T06:48:17.924Z,100421.63
2022-07-25T06:50:46.510Z,100415.66
2022-07-25T06:53:14.986Z,100412.89
2022-07-25T06:55:43.775Z,100400.67
2022-07-25T06:58:12.004Z,100397.23
2022-07-25T07:00:40.764Z,100397.34
2022-07-25T07:03:09.795Z,100398.05
2022-07-25T07:05:39.953Z,100404.19
2022-07-25T07:08:08.468Z,100406.95
2022-07-25T07:10:37.289Z,100405.37
2022-07-25T07:13:14.102Z,100403.20
2022-07-25T07:15:50.294Z,100402.23
2022-07-25T07:18:19.871Z,100402.42
2022-07-25T07:20:48.767Z,100401.42
2022-07-25T07:23:17.914Z,100395.34
2022-07-25T07:25:47.558Z,100396.06
2022-07-25T07:28:16.662Z,100393.40
2022-07-25T07:31:15.257Z,100390.52
2022-07-25T07:33:35.637Z,100387.27
2022-07-25T07:36:04.111Z,100383.05
2022-07-25T07:38:32.345Z,100383.74
2022-07-25T07:41:01.083Z,100383.20
2022-07-25T07:43:32.009Z,100380.35
2022-07-25T07:46:01.552Z,100382.95
2022-07-25T07:48:32.600Z,100378.08
2022-07-25T07:51:02.762Z,100375.40
2022-07-25T07:53:50.934Z,100369.81
2022-07-25T07:56:19.752Z,100368.71
2022-07-25T07:58:48.430Z,100371.95
2022-07-25T08:01:17.214Z,100371.38
2022-07-25T08:03:45.676Z,100372.45
2022-07-25T08:06:14.358Z,100374.23
2022-07-25T08:08:42.797Z,100371.14
2022-07-25T08:11:11.217Z,100367.01
2022-07-25T08:13:39.926Z,100364.00
2022-07-25T08:16:08.990Z,100366.36
2022-07-25T08:18:37.610Z,100370.45
2022-07-25T08:21:07.290Z,100368.55
2022-07-25T08:23:39.141Z,100368.65
2022-07-25T08:26:08.050Z,100365.36
2022-07-25T08:28:36.550Z,100367.79
2022-07-25T08:31:05.519Z,100368.18
2022-07-25T08:33:34.716Z,100373.31
2022-07-25T08:36:04.213Z,100376.80
2022-07-25T08:38:32.698Z,100374.41
2022-07-25T08:41:03.115Z,100371.20
2022-07-25T08:43:33.200Z,100370.21
2022-07-25T08:46:02.649Z,100362.98
2022-07-25T08:48:31.585Z,100359.98
2022-07-25T08:51:00.460Z,100363.02
2022-07-25T08:53:33.506Z,100356.08
2022-07-25T08:56:13.421Z,100356.93
2022-07-25T08:58:44.988Z,100355.02
2022-07-25T09:01:14.703Z,100351.33
2022-07-25T09:03:44.407Z,100345.98
2022-07-25T09:06:18.978Z,100345.11
2022-07-25T09:09:00.479Z,100344.04
2022-07-25T09:11:35.217Z,100342.89
2022-07-25T09:14:09.568Z,100347.20
2022-07-25T09:16:41.219Z,100345.96
2022-07-25T09:19:17.792Z,100346.32
2022-07-25T09:21:59.548Z,100346.80
2022-07-25T09:24:28.785Z,100339.86
2022-07-25T09:26:59.837Z,100341.42
2022-07-25T09:29:31.100Z,100337.75
2022-07-25T09:32:01.785Z,100337.82
2022-07-25T09:34:37.944Z,100337.75
2022-07-25T09:37:09.871Z,100335.17
2022-07-25T09:39:45.532Z,100329.86
2022-07-25T09:42:16.721Z,100328.08
2022-07-25T09:44:57.515Z,100325.71
2022-07-25T09:47:26.602Z,100326.52
2022-07-25T09:49:55.778Z,100328.54
2022-07-25T09:52:24.362Z,100328.40
2022-07-25T09:54:54.910Z,100333.11
2022-07-25T09:57:24.395Z,100329.41
2022-07-25T09:59:56.300Z,100323.42
2022-07-25T10:02:40.777Z,100318.73
2022-07-25T10:05:18.510Z,100312.17
2022-07-25T10:07:50.485Z,100307.07
2022-07-25T10:10:32.016Z,100308.59
2022-07-25T10:13:10.725Z,100313.97
2022-07-25T10:15:44.180Z,100305.36
2022-07-25T10:18:14.297Z,100312.52
2022-07-25T10:20:44.719Z,100307.34
2022-07-25T10:23:27.193Z,100307.27
2022-07-25T10:26:15.711Z,100299.73
2022-07-25T10:28:47.540Z,100297.33
2022-07-25T10:31:30.447Z,100296.38
2022-07-25T10:34:02.324Z,100302.23
2022-07-25T10:36:51.477Z,100290.84
2022-07-25T10:39:21.595Z,100284.86
2022-07-25T10:42:00.443Z,100283.35
2022-07-25T10:44:40.009Z,100285.36
2022-07-25T10:47:13.464Z,100282.45
2022-07-25T10:50:15.282Z,100278.81
2022-07-25T10:52:42.962Z,100279.93
2022-07-25T10:55:22.280Z,100278.08
2022-07-25T10:58:21.847Z,100274.88
2022-07-25T11:00:51.520Z,100269.69
2022-07-25T11:03:22.155Z,100267.09
2022-07-25T11:05:54.875Z,100261.16
2022-07-25T11:08:35.186Z,100264.26
2022-07-25T11:11:03.712Z,100257.63
2022-07-25T11:13:37.562Z,100251.01
2022-07-25T11:16:06.766Z,100252.31
2022-07-25T11:18:41.011Z,100242.23
2022-07-25T11:21:10.041Z,100241.44
2022-07-25T11:23:40.560Z,100240.75
2022-07-25T11:26:12.100Z,100239.50
2022-07-25T11:28:45.723Z,100238.16
2022-07-25T11:31:17.059Z,100233.75
2022-07-25T11:33:48.359Z,100234.64
2022-07-25T11:36:17.696Z,100227.73
2022-07-25T11:38:49.377Z,100228.60
2022-07-25T11:41:29.283Z,100228.30
2022-07-25T11:43:57.901Z,100225.23
2022-07-25T11:46:26.451Z,100216.88
2022-07-25T11:49:05.779Z,100205.23
2022-07-25T11:51:39.217Z,100199.41
2022-07-25T11:54:10.475Z,100195.73
2022-07-25T11:56:42.940Z,100188.94
2022-07-25T11:59:12.558Z,100179.04
2022-07-25T12:01:43.155Z,100182.39
2022-07-25T12:04:14.565Z,100177.62
2022-07-25T12:06:45.236Z,100178.10
2022-07-25T12:09:21.759Z,100182.14
2022-07-25T12:11:50.291Z,100175.50
2022-07-25T12:14:18.696Z,100171.97
2022-07-25T12:16:48.090Z,100167.73
2022-07-25T12:19:22.246Z,100162.63
2022-07-25T12:21:51.179Z,100167.93
2022-07-25T12:24:19.511Z,100163.61
2022-07-25T12:26:47.954Z,100163.22
2022-07-25T12:29:16.488Z,100157.95
2022-07-25T12:31:45.101Z,100153.42
2022-07-25T12:34:13.407Z,100150.60
2022-07-25T12:36:45.413Z,100154.04
2022-07-25T12:39:14.126Z,100147.97
2022-07-25T12:41:43.048Z,100139.54
2022-07-25T12:44:11.666Z,100134.23
2022-07-25T12:58:15.553Z,100135.31
2022-07-25T13:00:44.729Z,100124.33
2022-07-25T13:03:14.495Z,100122.88
2022-07-25T13:05:43.188Z,100118.65
2022-07-25T13:08:11.867Z,100118.34
2022-07-25T13:10:40.350Z,100116.98
2022-07-25T13:13:09.172Z,100110.98
2022-07-25T13:15:38.339Z,100111.72
2022-07-25T13:18:06.978Z,100105.05
2022-07-25T13:20:37.716Z,100098.85
2022-07-25T13:23:06.330Z,100103.29
2022-07-25T13:25:35.127Z,100096.98
2022-07-25T13:28:08.575Z,100089.06
2022-07-25T13:30:40.285Z,100086.91
2022-07-25T13:33:11.013Z,100077.15
2022-07-25T13:35:39.996Z,100074.80
2022-07-25T13:38:12.176Z,100070.77
2022-07-25T13:40:42.394Z,100065.02
2022-07-25T13:43:13.221Z,100061.27
2022-07-25T13:45:42.633Z,100057.92
2022-07-25T13:48:28.812Z,100049.42
2022-07-25T13:50:59.646Z,100043.89
2022-07-25T13:53:30.588Z,100038.55
2022-07-25T13:56:00.142Z,100033.41
2022-07-25T13:58:29.000Z,100027.73
2022-07-25T14:00:57.860Z,100023.20
2022-07-25T14:03:26.376Z,100021.62
2022-07-25T14:05:54.828Z,100021.35
2022-07-25T14:08:23.764Z,100016.73
2022-07-25T14:10:52.941Z,100014.71
2022-07-25T14:13:21.834Z,100008.48
2022-07-25T14:15:50.722Z,100000.41
2022-07-25T14:18:19.172Z,99997.91
2022-07-25T14:20:47.960Z,99995.71
2022-07-25T14:23:16.806Z,100000.44
2022-07-25T14:25:45.466Z,100001.70
2022-07-25T14:28:13.899Z,100005.01
2022-07-25T14:30:42.635Z,99997.23
2022-07-25T14:33:27.498Z,99995.14
2022-07-25T14:35:59.771Z,99997.88
2022-07-25T14:38:28.230Z,99987.48
2022-07-25T14:40:57.243Z,99978.94
2022-07-25T14:43:25.817Z,99981.08
2022-07-25T14:45:54.526Z,99973.17
2022-07-25T14:48:23.022Z,99971.94
2022-07-25T14:50:51.782Z,99963.41
2022-07-25T14:53:20.548Z,99961.21
2022-07-25T14:55:49.052Z,99956.52
2022-07-25T14:58:17.938Z,99954.18
2022-07-25T15:00:46.493Z,99957.43
2022-07-25T15:03:15.621Z,99952.70
2022-07-25T15:05:44.816Z,99951.02
2022-07-25T15:08:14.447Z,99951.94
2022-07-25T15:10:42.801Z,99945.59
2022-07-25T15:13:30.355Z,99941.36
2022-07-25T15:16:00.337Z,99937.05
2022-07-25T15:18:29.639Z,99934.02
2022-07-25T15:20:58.330Z,99927.27
2022-07-25T15:23:30.230Z,99928.93
2022-07-25T15:26:02.342Z,99927.70
2022-07-25T15:28:37.149Z,99929.22
2022-07-25T15:31:06.572Z,99930.19
2022-07-25T15:33:35.177Z,99922.44
2022-07-25T15:36:03.771Z,99919.48
2022-07-25T15:38:32.377Z,99914.86
2022-07-25T15:41:00.762Z,99917.09
2022-07-25T15:43:29.314Z,99918.86
2022-07-25T15:45:58.118Z,99908.92
2022-07-25T15:48:28.044Z,99909.80
2022-07-25T15:50:59.075Z,99904.64
2022-07-25T15:53:28.655Z,99903.59
2022-07-25T15:55:57.355Z,99902.75
2022-07-25T15:58:27.055Z,99901.30
2022-07-25T16:00:55.760Z,99892.59
2022-07-25T16:03:24.502Z,99888.32
2022-07-25T16:05:55.700Z,99883.64
2022-07-25T16:08:24.084Z,99881.35
2022-07-25T16:10:53.044Z,99878.08
2022-07-25T16:13:21.900Z,99871.79
2022-07-25T16:15:50.343Z,99868.58
2022-07-25T16:18:18.792Z,99865.15
2022-07-25T16:20:47.313Z,99859.52
2022-07-25T16:23:15.855Z,99855.35
2022-07-25T16:25:44.199Z,99850.30
2022-07-25T16:28:12.816Z,99844.39
2022-07-25T16:30:41.502Z,99843.16
2022-07-25T16:33:09.982Z,99835.47
2022-07-25T16:35:38.567Z,99832.20
2022-07-25T16:38:07.250Z,99832.86
2022-07-25T16:40:36.040Z,99829.32
2022-07-25T16:43:04.525Z,99827.77
2022-07-25T16:45:33.234Z,99821.84
2022-07-25T16:48:01.891Z,99822.70
2022-07-25T16:50:30.272Z,99823.86
2022-07-25T16:52:58.650Z,99820.21
2022-07-25T16:55:27.335Z,99821.94
2022-07-25T16:57:55.919Z,99820.20
2022-07-25T17:00:24.623Z,99816.83
2022-07-25T17:02:53.289Z,99815.20
2022-07-25T17:05:21.859Z,99815.38
2022-07-25T17:07:57.021Z,99808.71
2022-07-25T17:10:28.604Z,99806.64
2022-07-25T17:12:57.076Z,99804.08
2022-07-25T17:15:25.732Z,99799.67
2022-07-25T17:17:54.239Z,99794.51
2022-07-25T17:20:22.632Z,99789.94
2022-07-25T17:22:51.172Z,99790.84
2022-07-25T17:25:19.595Z,99788.79
2022-07-25T17:27:48.238Z,99783.02
2022-07-25T17:30:16.616Z,99779.98
2022-07-25T17:32:45.183Z,99776.16
2022-07-25T17:35:13.784Z,99772.29
2022-07-25T17:37:42.374Z,99768.69
2022-07-25T17:40:11.371Z,99761.38
2022-07-25T17:42:44.950Z,99764.36
2022-07-25T17:45:15.569Z,99762.52
2022-07-25T17:47:44.528Z,99761.75
2022-07-25T17:50:13.254Z,99761.05
2022-07-25T17:52:41.866Z,99754.85
2022-07-25T17:55:12.179Z,99750.67
2022-07-25T17:57:42.614Z,99753.00
2022-07-25T18:00:13.112Z,99749.23
2022-07-25T18:02:42.270Z,99750.39
2022-07-25T18:05:11.157Z,99753.05
2022-07-25T18:07:45.033Z,99749.30
2022-07-25T18:10:13.613Z,99752.73
2022-07-25T18:12:42.801Z,99751.04
2022-07-25T18:15:12.548Z,99750.75
2022-07-25T18:17:48.838Z,99749.16
2022-07-25T18:20:18.112Z,99747.48
2022-07-25T18:22:46.622Z,99742.23
2022-07-25T18:25:15.434Z,99744.14
2022-07-25T18:27:46.211Z,99744.86
2022-07-25T18:30:15.468Z,99743.38
2022-07-25T18:32:44.071Z,99742.98
2022-07-25T18:35:13.293Z,99746.23
2022-07-25T18:37:41.977Z,99749.34
2022-07-25T18:40:11.468Z,99745.42
2022-07-25T18:42:40.765Z,99743.27
2022-07-25T18:45:10.161Z,99743.81
2022-07-25T18:47:40.202Z,99743.23
2022-07-25T18:50:09.582Z,99742.55
2022-07-25T18:52:37.989Z,99740.50
2022-07-25T18:55:09.004Z,99742.55
2022-07-25T18:57:37.957Z,99740.86
2022-07-25T19:00:09.540Z,99738.11
2022-07-25T19:02:38.131Z,99738.45
2022-07-25T19:05:08.923Z,99735.11
2022-07-25T19:07:38.919Z,99738.06
2022-07-25T19:10:07.774Z,99736.08
2022-07-25T19:12:36.866Z,99735.98
2022-07-25T19:15:06.468Z,99729.45
2022-07-25T19:17:37.172Z,99727.42
2022-07-25T19:20:06.685Z,99718.76
2022-07-25T19:22:35.328Z,99715.82
2022-07-25T19:25:08.443Z,99713.96
2022-07-25T19:27:37.791Z,99713.89
2022-07-25T19:30:08.092Z,99716.00
2022-07-25T19:32:37.309Z,99712.20
2022-07-25T19:35:06.906Z,99714.85
2022-07-25T19:37:35.602Z,99708.02
2022-07-25T19:40:06.472Z,99709.33
2022-07-25T19:42:35.349Z,99705.48
2022-07-25T19:45:04.952Z,99705.80
2022-07-25T19:47:33.631Z,99702.27
2022-07-25T19:50:02.316Z,99703.10
2022-07-25T19:52:30.933Z,99705.44
2022-07-25T19:55:00.499Z,99707.19
2022-07-25T19:57:29.726Z,99704.50
2022-07-25T19:59:58.322Z,99701.63
2022-07-25T20:02:27.028Z,99702.57
2022-07-25T20:04:55.783Z,99703.30
2022-07-25T20:07:25.260Z,99702.87
2022-07-25T20:09:54.151Z,99706.11
2022-07-25T20:12:23.498Z,99703.48
2022-07-25T20:14:52.441Z,99701.25
2022-07-25T20:17:21.252Z,99695.21
2022-07-25T20:19:49.816Z,99690.14
2022-07-25T20:22:18.604Z,99689.91
2022-07-25T20:24:47.269Z,99691.64
2022-07-25T20:27:15.974Z,99692.00
2022-07-25T20:29:45.017Z,99693.16
2022-07-25T20:32:13.417Z,99691.52
2022-07-25T20:34:41.820Z,99690.98
2022-07-25T20:37:10.323Z,99689.18
2022-07-25T20:39:39.300Z,99684.48
2022-07-25T20:42:07.990Z,99686.65
2022-07-25T20:44:36.505Z,99681.20
2022-07-25T20:47:06.106Z,99676.48
2022-07-25T20:49:36.753Z,99674.07
2022-07-25T20:52:08.244Z,99676.02
2022-07-25T20:54:37.189Z,99668.02
2022-07-25T20:57:06.144Z,99666.05
2022-07-25T20:59:35.115Z,99664.30
2022-07-25T21:02:03.969Z,99661.94
2022-07-25T21:04:32.431Z,99657.66
2022-07-25T21:07:01.091Z,99655.10
2022-07-25T21:09:34.804Z,99647.39
2022-07-25T21:12:03.663Z,99643.98
2022-07-25T21:14:32.076Z,99640.88
2022-07-25T21:17:00.577Z,99641.40
2022-07-25T21:19:29.438Z,99642.04
2022-07-25T21:21:57.924Z,99641.63
2022-07-25T21:24:26.426Z,99634.73
2022-07-25T21:26:54.713Z,99632.33
2022-07-25T21:29:23.154Z,99625.56
2022-07-25T21:31:51.987Z,99627.35
2022-07-25T21:34:22.754Z,99621.19
2022-07-25T21:36:51.158Z,99618.36
2022-07-25T21:39:19.739Z,99620.33
2022-07-25T21:41:48.250Z,99607.90
2022-07-25T21:44:24.212Z,99606.73
2022-07-25T21:46:53.214Z,99606.02
2022-07-25T21:49:41.336Z,99592.79
2022-07-25T21:52:13.977Z,99590.42
2022-07-25T21:54:43.730Z,99582.96
2022-07-25T21:57:13.730Z,99580.92
2022-07-25T21:59:43.759Z,99584.13
2022-07-25T22:02:13.008Z,99579.63
2022-07-25T22:04:41.926Z,99579.55
2022-07-25T22:07:10.413Z,99578.30
2022-07-25T22:09:38.816Z,99574.93
2022-07-25T22:12:07.843Z,99572.04
2022-07-25T22:14:37.797Z,99567.96
2022-07-25T22:17:06.317Z,99567.41
2022-07-25T22:19:35.456Z,99561.73
2022-07-25T22:22:06.131Z,99558.31
2022-07-25T22:24:34.790Z,99556.38
2022-07-25T22:27:03.476Z,99557.83
2022-07-25T22:29:31.987Z,99552.75
2022-07-25T22:32:01.019Z,99548.23
2022-07-25T22:34:29.864Z,99541.71
2022-07-25T22:36:58.170Z,99539.86
2022-07-25T22:39:26.575Z,99541.11
2022-07-25T22:41:55.107Z,99534.80
2022-07-25T22:44:23.488Z,99527.96
2022-07-25T22:46:52.017Z,99531.12
2022-07-25T22:49:20.700Z,99527.71
2022-07-25T22:51:49.850Z,99533.35
2022-07-25T22:54:18.738Z,99535.13
2022-07-25T22:56:47.603Z,99529.23
2022-07-25T22:59:16.929Z,99521.66
2022-07-25T23:01:45.385Z,99526.13
2022-07-25T23:04:14.355Z,99519.17
2022-07-25T23:06:43.266Z,99516.09
2022-07-25T23:09:13.709Z,99512.67
2022-07-25T23:11:42.278Z,99508.23
2022-07-25T23:14:10.742Z,99508.69
2022-07-25T23:16:41.820Z,99499.48
2022-07-25T23:19:10.775Z,99494.89
2022-07-25T23:21:39.824Z,99502.93
2022-07-25T23:24:08.192Z,99513.60
2022-07-25T23:26:36.779Z,99522.23
2022-07-25T23:29:05.455Z,99520.40
2022-07-25T23:31:34.053Z,99521.38
2022-07-25T23:34:02.613Z,99520.81
2022-07-25T23:36:31.212Z,99521.70
2022-07-25T23:38:59.780Z,99521.31
2022-07-25T23:41:28.602Z,99505.20
2022-07-25T23:43:59.500Z,99480.46
2022-07-25T23:46:29.580Z,99485.56
2022-07-25T23:49:00.249Z,99484.85
2022-07-25T23:51:28.980Z,99481.14
2022-07-25T23:53:57.607Z,99483.95
2022-07-25T23:56:26.507Z,99488.44
2022-07-25T23:58:55.091Z,99484.27
